Time;durP1;ratioP1;P1;durP2;ratioP2;P2;SDS_P1;SDS_P2;PMS_P1;PMS_P2;Temp;Humidity;BMP_temperature;BMP_pressure;BME280_temperature;BME280_humidity;BME280_pressure;Samples;Min_cycle;Max_cycle;Signal;HPM_P1;HPM_P2
2021/05/03 00:01:24;;;;;;;3.00;2.70;;;;;;;7.01;65.61;97173.25;5110590;28;20163;-60
2021/05/03 00:03:49;;;;;;;2.83;2.40;;;;;;;6.85;65.70;97173.59;5111812;28;20278;-58
2021/05/03 00:06:15;;;;;;;2.80;2.60;;;;;;;6.83;65.06;97171.16;5112075;28;20675;-57
2021/05/03 00:08:40;;;;;;;2.73;2.53;;;;;;;6.80;64.81;97171.53;5110767;28;20641;-58
2021/05/03 00:11:05;;;;;;;2.57;2.30;;;;;;;6.74;65.04;97179.34;5111264;28;20640;-57
2021/05/03 00:13:31;;;;;;;3.27;2.70;;;;;;;6.71;64.74;97171.91;5110634;28;20183;-56
2021/05/03 00:15:57;;;;;;;3.60;2.80;;;;;;;6.61;64.89;97174.84;5111450;28;20168;-58
2021/05/03 00:18:22;;;;;;;2.97;2.77;;;;;;;6.63;64.88;97175.47;5111300;28;20225;-60
2021/05/03 00:20:48;;;;;;;3.13;2.83;;;;;;;6.55;65.39;97173.81;5111271;28;20186;-59
2021/05/03 00:23:14;;;;;;;2.77;2.57;;;;;;;6.59;65.43;97174.22;5111580;28;20199;-57
2021/05/03 00:25:40;;;;;;;2.80;2.60;;;;;;;6.55;65.04;97167.81;5110955;28;20679;-57
2021/05/03 00:28:05;;;;;;;4.80;2.80;;;;;;;6.53;65.76;97175.00;5111532;28;20247;-54
2021/05/03 00:30:31;;;;;;;2.83;2.60;;;;;;;6.43;65.41;97166.72;5110622;28;20500;-56
2021/05/03 00:32:56;;;;;;;3.90;2.80;;;;;;;6.36;66.16;97169.28;5111430;28;20777;-55
2021/05/03 00:35:24;;;;;;;3.80;2.90;;;;;;;6.34;66.10;97171.28;5111109;28;20251;-59
2021/05/03 00:37:50;;;;;;;3.23;2.73;;;;;;;6.37;65.68;97168.28;5111294;28;20179;-59
2021/05/03 00:40:15;;;;;;;3.10;2.80;;;;;;;6.32;65.68;97170.66;5111004;28;20259;-59
2021/05/03 00:42:44;;;;;;;3.40;2.63;;;;;;;6.40;65.03;97173.13;5110592;28;20311;-58
2021/05/03 00:45:16;;;;;;;4.63;3.07;;;;;;;6.33;65.77;97168.88;5111472;28;20175;-59
2021/05/03 00:47:42;;;;;;;3.20;2.90;;;;;;;6.26;66.45;97169.63;5110329;28;20176;-58
2021/05/03 00:50:10;;;;;;;2.73;2.53;;;;;;;6.27;66.40;97180.84;5111190;28;20191;-58
2021/05/03 00:52:35;;;;;;;3.47;3.00;;;;;;;6.18;67.08;97179.38;5110444;28;20236;-59
2021/05/03 00:55:01;;;;;;;2.73;2.50;;;;;;;6.08;67.45;97178.88;5111108;28;20183;-59
2021/05/03 00:57:27;;;;;;;3.40;3.10;;;;;;;6.16;67.99;97173.56;5092856;28;20232;-60
2021/05/03 00:59:53;;;;;;;2.77;2.57;;;;;;;6.10;68.03;97182.94;5090765;28;20185;-59
2021/05/03 01:02:19;;;;;;;4.00;3.10;;;;;;;6.13;68.16;97184.34;5090793;28;20184;-58
2021/05/03 01:04:44;;;;;;;2.73;2.53;;;;;;;6.18;68.66;97188.00;5090055;28;20343;-59
2021/05/03 01:07:09;;;;;;;4.53;3.27;;;;;;;6.22;69.17;97186.63;5069212;28;20166;-60
2021/05/03 01:09:35;;;;;;;2.93;2.73;;;;;;;6.30;68.69;97180.44;5088811;28;20168;-60
2021/05/03 01:12:01;;;;;;;3.83;2.60;;;;;;;6.26;69.47;97179.22;5093791;28;20621;-59
2021/05/03 01:14:27;;;;;;;3.50;3.20;;;;;;;6.20;70.25;97188.59;5093521;28;20661;-59
2021/05/03 01:16:52;;;;;;;3.50;3.20;;;;;;;6.38;70.03;97182.94;5094241;28;20217;-58
2021/05/03 01:19:20;;;;;;;4.53;3.37;;;;;;;6.43;69.99;97183.16;5094163;28;20263;-59
2021/05/03 01:21:50;;;;;;;3.83;3.50;;;;;;;6.19;71.86;97192.19;5075499;28;20180;-54
2021/05/03 01:24:17;;;;;;;4.13;3.70;;;;;;;6.29;71.58;97191.88;5093987;28;20192;-58
2021/05/03 01:26:43;;;;;;;3.90;3.50;;;;;;;6.31;71.84;97189.88;5093472;28;20181;-59
2021/05/03 01:29:08;;;;;;;4.27;3.87;;;;;;;6.28;72.28;97190.28;5093922;28;20583;-59
2021/05/03 01:31:34;;;;;;;4.27;3.87;;;;;;;6.36;72.32;97187.50;5092921;28;20165;-62
2021/05/03 01:34:07;;;;;;;4.23;3.80;;;;;;;6.32;72.30;97191.50;5093914;28;20664;-59
2021/05/03 01:36:51;;;;;;;4.87;4.40;;;;;;;6.28;73.28;97197.28;5093185;28;20169;-56
2021/05/03 01:39:17;;;;;;;5.30;4.43;;;;;;;6.11;74.19;97197.53;5078775;28;20527;-59
2021/05/03 01:41:44;;;;;;;5.00;3.93;;;;;;;6.11;73.97;97197.53;5092864;28;20164;-59
2021/05/03 01:44:15;;;;;;;5.63;4.03;;;;;;;6.10;73.93;97198.53;5077472;28;20208;-59
2021/05/03 01:46:40;;;;;;;5.23;4.60;;;;;;;6.04;74.94;97198.47;5092795;28;20207;-56
2021/05/03 01:49:08;;;;;;;4.70;4.30;;;;;;;5.99;75.36;97200.84;5093676;28;20269;-57
2021/05/03 01:51:36;;;;;;;4.80;4.27;;;;;;;6.02;75.00;97205.69;5093092;28;20169;-57
2021/05/03 01:54:03;;;;;;;5.00;4.50;;;;;;;5.93;75.47;97210.19;5093295;28;20211;-54
2021/05/03 01:56:28;;;;;;;4.87;4.37;;;;;;;5.83;75.73;97201.88;5090340;28;20224;-58
2021/05/03 01:58:54;;;;;;;4.97;3.97;;;;;;;5.70;76.73;97214.75;5093590;28;20230;-57
2021/05/03 02:01:23;;;;;;;5.53;4.60;;;;;;;5.64;77.00;97205.06;5092785;28;20609;-60
2021/05/03 02:03:49;;;;;;;4.93;4.43;;;;;;;5.62;77.16;97207.88;5093046;28;20204;-55
2021/05/03 02:06:15;;;;;;;5.00;4.03;;;;;;;5.66;76.87;97213.50;5093575;28;20177;-57
2021/05/03 02:08:41;;;;;;;5.77;4.60;;;;;;;5.59;77.27;97205.63;5092514;28;20544;-57
2021/05/03 02:11:07;;;;;;;4.80;4.23;;;;;;;5.60;77.78;97209.03;5092849;28;20165;-57
2021/05/03 02:13:33;;;;;;;5.53;4.27;;;;;;;5.49;78.07;97202.53;5070809;28;20634;-56
2021/05/03 02:15:59;;;;;;;5.53;4.73;;;;;;;5.42;78.21;97199.88;5083947;28;20165;-57
2021/05/03 02:18:25;;;;;;;5.13;4.63;;;;;;;5.49;78.47;97201.72;5092220;28;20200;-59
2021/05/03 02:20:50;;;;;;;5.13;4.63;;;;;;;5.46;78.32;97200.31;5092355;28;20173;-58
2021/05/03 02:23:16;;;;;;;4.67;3.87;;;;;;;5.38;78.63;97193.44;5093010;28;20200;-58
2021/05/03 02:25:41;;;;;;;5.37;4.47;;;;;;;5.46;78.86;97197.72;5091827;28;20172;-55
2021/05/03 02:28:07;;;;;;;4.93;4.43;;;;;;;5.29;79.98;97197.13;5093150;28;20210;-54
2021/05/03 02:30:32;;;;;;;5.20;4.43;;;;;;;5.18;80.48;97196.81;5092292;28;20221;-57
2021/05/03 02:32:58;;;;;;;5.37;4.43;;;;;;;5.14;80.50;97192.94;5092680;28;20203;-59
2021/05/03 02:35:28;;;;;;;4.90;4.40;;;;;;;5.04;80.57;97193.22;5092446;28;20176;-59
2021/05/03 02:37:57;;;;;;;5.80;4.70;;;;;;;5.02;81.08;97196.00;5092499;28;20177;-57
2021/05/03 02:40:24;;;;;;;5.90;4.70;;;;;;;4.99;80.83;97198.16;5091847;28;20206;-59
2021/05/03 02:42:52;;;;;;;5.27;4.73;;;;;;;4.85;82.33;97196.38;5092115;28;20196;-59
2021/05/03 02:45:18;;;;;;;5.63;4.70;;;;;;;4.80;82.13;97194.31;5092916;28;20179;-57
2021/05/03 02:47:44;;;;;;;5.60;4.53;;;;;;;4.89;82.19;97200.25;5091507;28;20208;-59
2021/05/03 02:50:11;;;;;;;5.87;5.17;;;;;;;4.85;82.69;97212.75;5092464;28;20261;-59
2021/05/03 02:52:36;;;;;;;4.83;4.40;;;;;;;4.71;82.54;97212.78;5091560;28;20176;-59
2021/05/03 02:55:03;;;;;;;5.20;4.80;;;;;;;4.68;83.22;97207.94;5092400;28;20181;-58
2021/05/03 02:57:28;;;;;;;5.60;4.90;;;;;;;4.65;83.66;97216.88;5098546;28;20703;-59
2021/05/03 02:59:54;;;;;;;5.73;4.70;;;;;;;4.59;83.97;97217.59;5112952;28;20176;-57
2021/05/03 03:02:21;;;;;;;5.43;4.87;;;;;;;4.72;83.63;97222.19;5112252;28;20167;-59
2021/05/03 03:04:47;;;;;;;6.20;4.87;;;;;;;4.65;83.55;97219.47;5112652;28;20656;-59
2021/05/03 03:07:12;;;;;;;5.50;4.80;;;;;;;4.53;84.06;97218.31;5112882;28;20176;-59
2021/05/03 03:09:38;;;;;;;5.40;4.80;;;;;;;4.57;84.04;97222.16;5110405;28;20255;-58
2021/05/03 03:12:05;;;;;;;5.77;4.83;;;;;;;4.52;84.10;97217.50;5112682;28;20259;-60
2021/05/03 03:14:30;;;;;;;5.50;4.97;;;;;;;4.47;84.88;97208.63;5111953;28;20196;-59
2021/05/03 03:16:56;;;;;;;7.40;4.97;;;;;;;4.50;84.72;97209.09;5112533;28;20191;-58
2021/05/03 03:19:21;;;;;;;6.40;5.23;;;;;;;4.56;84.53;97205.78;5112480;28;20165;-61
2021/05/03 03:21:47;;;;;;;6.60;4.63;;;;;;;4.48;85.04;97213.66;5112167;28;20530;-59
2021/05/03 03:24:12;;;;;;;5.40;4.83;;;;;;;4.49;85.02;97210.09;5112340;28;20227;-59
2021/05/03 03:26:38;;;;;;;5.40;4.90;;;;;;;4.51;85.59;97221.06;5111375;28;20180;-59
2021/05/03 03:29:05;;;;;;;6.87;5.43;;;;;;;4.61;84.49;97226.03;5112043;28;21387;-59
2021/05/03 03:31:32;;;;;;;6.93;5.40;;;;;;;4.54;84.80;97214.72;5110249;28;20172;-64
2021/05/03 03:33:57;;;;;;;6.37;5.30;;;;;;;4.45;85.64;97215.81;5111857;28;20210;-59
2021/05/03 03:36:24;;;;;;;5.53;5.03;;;;;;;4.61;84.98;97218.25;5111579;28;20172;-60
2021/05/03 03:38:50;;;;;;;8.73;5.13;;;;;;;4.66;84.91;97221.09;5111406;28;20184;-56
2021/05/03 03:41:15;;;;;;;7.53;5.70;;;;;;;4.69;84.43;97231.13;5111983;28;20171;-57
2021/05/03 03:43:41;;;;;;;6.10;5.27;;;;;;;4.75;84.96;97229.59;5110821;28;20375;-58
2021/05/03 03:46:06;;;;;;;8.23;5.80;;;;;;;4.70;84.59;97229.31;5112235;28;20172;-59
2021/05/03 03:48:32;;;;;;;6.07;5.47;;;;;;;4.70;84.69;97237.94;5111170;28;20183;-59
2021/05/03 03:50:57;;;;;;;9.43;5.83;;;;;;;4.74;85.05;97238.38;5111639;28;20307;-56
2021/05/03 03:53:23;;;;;;;6.53;5.67;;;;;;;4.81;84.50;97239.28;5109709;28;20196;-61
2021/05/03 03:55:48;;;;;;;7.70;5.77;;;;;;;4.79;85.24;97249.81;5108277;28;20228;-57
2021/05/03 03:58:14;;;;;;;7.60;5.97;;;;;;;4.81;85.09;97241.88;5091131;28;20669;-57
2021/05/03 04:00:39;;;;;;;6.23;5.60;;;;;;;4.73;85.44;97241.97;5089569;28;20496;-58
2021/05/03 04:03:06;;;;;;;9.40;5.63;;;;;;;4.78;85.44;97237.84;5091016;28;20248;-58
2021/05/03 04:08:16;;;;;;;7.43;6.20;;;;;;;4.66;86.16;97243.66;5091618;28;20176;-57
2021/05/03 04:21:36;;;;;;;8.17;5.60;;;;;;;4.48;86.61;97247.38;5076110;28;20230;-57
2021/05/03 04:24:12;;;;;;;5.73;5.03;;;;;;;4.55;87.12;97248.31;5091217;28;20318;-56
2021/05/03 04:26:38;;;;;;;5.97;5.37;;;;;;;4.56;86.48;97257.72;5090413;28;20271;-58
2021/05/03 04:29:03;;;;;;;6.10;5.50;;;;;;;4.65;86.67;97262.81;5091035;28;20295;-58
2021/05/03 04:31:29;;;;;;;8.20;6.43;;;;;;;4.74;86.21;97265.13;5089624;28;20541;-57
2021/05/03 04:33:54;;;;;;;6.53;5.90;;;;;;;4.72;86.54;97259.34;5090684;28;20291;-57
2021/05/03 04:36:20;;;;;;;6.60;5.63;;;;;;;4.77;86.23;97267.41;5091193;28;20590;-58
2021/05/03 04:38:47;;;;;;;8.03;6.07;;;;;;;4.76;86.32;97259.78;5089949;28;20180;-58
2021/05/03 04:41:13;;;;;;;6.70;5.77;;;;;;;4.85;85.61;97263.88;5091524;28;20176;-58
2021/05/03 04:43:39;;;;;;;7.37;6.13;;;;;;;4.97;84.99;97262.47;5093448;28;20574;-57
2021/05/03 04:46:04;;;;;;;7.73;6.00;;;;;;;4.89;85.50;97260.78;5094942;28;20622;-57
2021/05/03 04:48:30;;;;;;;7.60;6.40;;;;;;;4.95;85.27;97267.03;5094172;28;20220;-58
2021/05/03 04:50:56;;;;;;;8.47;5.63;;;;;;;4.94;85.48;97268.03;5094546;28;20192;-58
2021/05/03 04:53:27;;;;;;;6.50;5.67;;;;;;;5.14;84.73;97273.47;5094657;28;20196;-57
2021/05/03 04:55:53;;;;;;;6.57;5.67;;;;;;;5.50;83.30;97271.75;5092808;28;20275;-57
2021/05/03 04:58:18;;;;;;;6.87;5.67;;;;;;;5.74;82.54;97276.59;5094769;28;20263;-59
2021/05/03 05:00:44;;;;;;;9.00;5.90;;;;;;;6.01;80.82;97282.13;5093806;28;20299;-56
2021/05/03 05:03:10;;;;;;;5.53;4.90;;;;;;;6.23;79.78;97284.53;5094675;28;20208;-60
2021/05/03 05:05:35;;;;;;;7.30;5.33;;;;;;;6.40;78.09;97279.06;5094175;28;20191;-58
2021/05/03 05:08:01;;;;;;;5.73;4.93;;;;;;;6.45;78.45;97284.53;5094531;28;20234;-59
2021/05/03 05:10:26;;;;;;;7.00;5.63;;;;;;;6.70;77.53;97288.31;5093687;28;20173;-58
2021/05/03 05:12:52;;;;;;;6.47;5.70;;;;;;;6.90;76.56;97293.66;5094374;28;20202;-58
2021/05/03 05:15:18;;;;;;;5.63;5.03;;;;;;;7.07;74.93;97290.56;5094341;28;20621;-59
2021/05/03 05:17:46;;;;;;;7.43;6.00;;;;;;;7.16;75.12;97282.59;5093305;28;20206;-59
2021/05/03 05:20:12;;;;;;;5.60;5.03;;;;;;;7.29;74.57;97287.88;5094259;28;20177;-59
2021/05/03 05:22:37;;;;;;;6.23;5.30;;;;;;;7.47;73.59;97290.75;5093491;28;20169;-59
2021/05/03 05:25:07;;;;;;;8.43;5.07;;;;;;;7.69;72.49;97287.00;5093801;28;20188;-59
2021/05/03 05:27:32;;;;;;;5.77;4.90;;;;;;;7.72;71.65;97288.44;5093403;28;20688;-59
2021/05/03 05:29:58;;;;;;;5.33;4.83;;;;;;;8.00;78.86;97291.75;5093459;28;20173;-61
2021/05/03 05:32:23;;;;;;;6.73;5.87;;;;;;;8.00;72.76;97290.94;5093638;28;20259;-61
2021/05/03 05:34:49;;;;;;;6.03;4.90;;;;;;;7.49;72.44;97289.56;5094230;28;20508;-61
2021/05/03 05:37:14;;;;;;;5.73;5.13;;;;;;;7.35;72.60;97293.13;5093973;28;20230;-58
2021/05/03 05:39:40;;;;;;;5.97;4.97;;;;;;;7.32;72.72;97298.72;5092905;28;20732;-59
2021/05/03 05:42:06;;;;;;;6.97;5.00;;;;;;;7.15;73.32;97299.22;5093318;28;20213;-58
2021/05/03 05:44:32;;;;;;;5.07;4.20;;;;;;;7.23;72.67;97301.69;5092993;28;20295;-60
2021/05/03 05:46:58;;;;;;;5.67;4.90;;;;;;;7.17;72.59;97295.44;5093221;28;20214;-60
2021/05/03 05:49:29;;;;;;;6.37;5.23;;;;;;;7.07;73.33;97297.59;5093214;28;20209;-60
2021/05/03 05:51:55;;;;;;;6.43;5.13;;;;;;;7.39;72.71;97301.34;5093819;28;20181;-59
2021/05/03 05:54:20;;;;;;;6.60;5.07;;;;;;;7.58;71.92;97300.63;5093049;28;20696;-57
2021/05/03 05:56:46;;;;;;;6.40;5.47;;;;;;;7.59;72.11;97302.25;5078061;28;20224;-60
2021/05/03 05:59:11;;;;;;;7.37;5.20;;;;;;;7.57;71.83;97306.06;5077574;28;20702;-58
2021/05/03 06:01:37;;;;;;;6.70;5.47;;;;;;;7.50;71.95;97306.03;5084701;28;20207;-58
2021/05/03 06:04:02;;;;;;;6.50;5.80;;;;;;;7.57;70.91;97306.88;5077019;28;20205;-59
2021/05/03 06:06:29;;;;;;;5.90;5.30;;;;;;;7.57;71.39;97304.25;5084689;28;20298;-59
2021/05/03 06:08:54;;;;;;;5.87;5.27;;;;;;;7.91;70.34;97308.59;5075939;28;20226;-64
2021/05/03 06:11:20;;;;;;;6.20;5.00;;;;;;;7.71;70.51;97307.69;5086707;28;20617;-59
2021/05/03 06:13:45;;;;;;;6.63;5.13;;;;;;;8.14;69.56;97308.22;5084270;28;20204;-59
2021/05/03 06:16:11;;;;;;;5.40;4.80;;;;;;;8.32;68.11;97311.09;5077278;28;20181;-56
2021/05/03 06:18:36;;;;;;;5.87;5.23;;;;;;;8.36;68.36;97309.69;5084306;28;20176;-63
2021/05/03 06:21:02;;;;;;;6.53;5.27;;;;;;;8.54;67.98;97312.53;5085096;28;20192;-64
2021/05/03 06:23:27;;;;;;;7.37;5.43;;;;;;;8.63;70.52;97310.53;5078382;28;20201;-62
2021/05/03 06:25:53;;;;;;;6.20;5.60;;;;;;;8.88;68.56;97308.09;5086334;28;20181;-57
2021/05/03 06:28:18;;;;;;;6.07;5.00;;;;;;;9.10;67.10;97314.69;5077673;28;20226;-57
2021/05/03 06:30:45;;;;;;;5.27;4.73;;;;;;;9.24;66.53;97318.09;5078198;28;20207;-58
2021/05/03 06:33:11;;;;;;;5.50;4.80;;;;;;;9.24;66.02;97318.91;5092924;28;20541;-60
2021/05/03 06:35:37;;;;;;;7.20;5.23;;;;;;;9.41;65.73;97319.28;5076911;28;20177;-59
2021/05/03 06:38:05;;;;;;;5.83;5.20;;;;;;;9.51;66.31;97315.22;5088955;28;20181;-60
2021/05/03 06:40:32;;;;;;;6.07;5.20;;;;;;;9.51;66.09;97315.22;5086777;28;20179;-61
2021/05/03 06:42:57;;;;;;;7.97;5.30;;;;;;;9.66;64.99;97316.75;5076084;28;20204;-60
2021/05/03 06:45:23;;;;;;;6.50;5.23;;;;;;;9.78;64.66;97320.34;5079386;28;20641;-61
2021/05/03 06:47:49;;;;;;;7.33;5.07;;;;;;;9.88;63.59;97321.50;5091084;28;20188;-62
2021/05/03 06:50:16;;;;;;;6.37;5.70;;;;;;;9.64;63.48;97318.78;5073204;28;20599;-62
2021/05/03 06:52:44;;;;;;;9.20;5.17;;;;;;;9.23;63.46;97335.59;5079433;28;20200;-61
2021/05/03 07:00:26;;;;;;;5.57;4.97;;;;;;;9.55;63.05;97339.13;5120538;22;20238;-62
2021/05/03 07:02:52;;;;;;;5.53;5.03;;;;;;;9.73;63.22;97334.06;5031555;28;20195;-62
2021/05/03 07:05:17;;;;;;;6.73;5.23;;;;;;;9.76;63.07;97338.06;5032524;28;20224;-62
2021/05/03 07:07:43;;;;;;;6.43;5.10;;;;;;;9.90;63.99;97340.44;5031339;28;20206;-62
2021/05/03 07:10:09;;;;;;;5.77;4.87;;;;;;;10.09;62.67;97338.72;5032442;28;20213;-62
2021/05/03 07:12:43;;;;;;;6.90;4.83;;;;;;;10.24;62.19;97351.56;5032519;28;20513;-62
2021/05/03 07:15:09;;;;;;;6.47;5.03;;;;;;;10.39;61.83;97341.59;5031689;28;20171;-63
2021/05/03 07:17:35;;;;;;;5.67;4.30;;;;;;;10.54;59.48;97351.78;5031671;28;20210;-62
2021/05/03 07:20:01;;;;;;;5.03;4.53;;;;;;;10.79;58.15;97347.38;5031061;28;20638;-63
2021/05/03 07:22:26;;;;;;;7.03;4.10;;;;;;;10.75;58.37;97346.19;5031339;28;20668;-61
2021/05/03 07:24:52;;;;;;;7.80;4.50;;;;;;;10.89;57.34;97336.41;5031210;28;20209;-62
2021/05/03 07:27:18;;;;;;;5.80;4.60;;;;;;;11.18;56.23;97335.72;5032176;28;20190;-63
2021/05/03 07:29:43;;;;;;;5.00;4.50;;;;;;;11.30;57.06;97336.63;5030408;28;20186;-62
2021/05/03 07:32:09;;;;;;;6.87;4.67;;;;;;;11.36;58.02;97340.22;5031254;28;20278;-62
2021/05/03 07:34:34;;;;;;;5.60;4.87;;;;;;;11.26;58.58;97344.13;5031244;28;20183;-62
2021/05/03 07:37:02;;;;;;;5.37;4.77;;;;;;;11.47;57.85;97348.16;5030504;28;20183;-62
2021/05/03 07:39:27;;;;;;;6.53;4.67;;;;;;;11.48;57.62;97341.09;5032186;28;20186;-62
2021/05/03 07:41:52;;;;;;;6.03;4.90;;;;;;;11.29;57.11;97339.47;5013102;28;20598;-62
2021/05/03 07:44:18;;;;;;;5.00;4.50;;;;;;;10.88;58.37;97340.84;5030848;28;20218;-62
2021/05/03 07:46:43;;;;;;;5.97;4.80;;;;;;;10.08;60.62;97331.09;5030445;28;20696;-61
2021/05/03 07:49:09;;;;;;;6.63;4.97;;;;;;;10.34;60.14;97339.63;5031070;28;20174;-61
2021/05/03 07:51:34;;;;;;;5.90;5.30;;;;;;;10.48;59.32;97337.69;5031178;28;20604;-62
2021/05/03 07:54:00;;;;;;;5.47;4.67;;;;;;;10.63;59.40;97338.22;5030845;28;20198;-62
2021/05/03 07:56:26;;;;;;;5.30;4.80;;;;;;;11.05;57.39;97334.03;5031577;28;20186;-62
2021/05/03 07:58:51;;;;;;;5.73;4.37;;;;;;;11.56;56.42;97325.84;5030009;28;20245;-62
2021/05/03 08:01:17;;;;;;;4.50;4.10;;;;;;;11.99;54.43;97335.47;5030944;28;20230;-62
2021/05/03 08:03:43;;;;;;;4.83;4.37;;;;;;;11.79;54.39;97327.03;5031024;28;20218;-62
2021/05/03 08:06:13;;;;;;;4.97;4.30;;;;;;;11.09;56.27;97329.94;5013852;28;20254;-62
2021/05/03 08:08:43;;;;;;;5.77;4.60;;;;;;;10.58;57.78;97335.44;5031576;28;20209;-62
2021/05/03 08:11:10;;;;;;;5.20;4.70;;;;;;;10.71;57.89;97330.06;5030843;28;20638;-62
2021/05/03 08:13:36;;;;;;;5.43;4.83;;;;;;;10.32;59.45;97325.91;5031183;28;20197;-61
2021/05/03 08:16:04;;;;;;;5.23;4.70;;;;;;;10.22;59.38;97335.25;5030414;28;20270;-61
2021/05/03 08:18:30;;;;;;;5.77;4.83;;;;;;;9.99;58.92;97333.13;5028648;28;20187;-62
2021/05/03 08:20:56;;;;;;;6.03;4.73;;;;;;;9.75;59.83;97333.84;5030507;28;20545;-62
2021/05/03 08:23:23;;;;;;;5.20;4.70;;;;;;;9.48;60.82;97344.38;5031291;28;20232;-61
2021/05/03 08:25:51;;;;;;;6.43;4.80;;;;;;;9.47;61.00;97340.16;5030053;28;20187;-62
2021/05/03 08:28:17;;;;;;;7.17;5.40;;;;;;;9.13;62.52;97341.25;5030757;28;20190;-62
2021/05/03 08:30:44;;;;;;;7.30;5.23;;;;;;;9.32;62.49;97346.66;5030324;28;20252;-61
2021/05/03 08:33:10;;;;;;;6.60;5.33;;;;;;;9.26;62.05;97335.19;5029861;28;20654;-61
2021/05/03 08:35:35;;;;;;;7.03;5.67;;;;;;;9.23;62.28;97334.81;5030873;28;20229;-61
2021/05/03 08:38:01;;;;;;;5.63;4.50;;;;;;;9.39;61.82;97350.06;5030425;28;20186;-62
2021/05/03 08:40:27;;;;;;;6.60;5.10;;;;;;;9.48;61.96;97333.94;5030828;28;20252;-62
2021/05/03 08:42:54;;;;;;;5.40;4.87;;;;;;;9.46;61.79;97337.78;5030277;28;20209;-62
2021/05/03 08:45:19;;;;;;;6.57;4.27;;;;;;;9.80;60.33;97341.88;5030378;28;20238;-61
2021/05/03 08:48:00;;;;;;;5.20;4.70;;;;;;;9.71;59.68;97340.50;5030446;28;20217;-62
2021/05/03 08:50:46;;;;;;;4.57;4.17;;;;;;;9.75;59.04;97347.72;5030495;28;20174;-62
2021/05/03 08:53:14;;;;;;;4.77;4.27;;;;;;;9.91;57.41;97339.44;5030950;28;20182;-62
2021/05/03 08:55:40;;;;;;;5.10;4.47;;;;;;;10.13;56.97;97345.16;5030613;28;20264;-62
2021/05/03 08:58:06;;;;;;;5.57;4.33;;;;;;;10.36;56.13;97339.41;5029850;28;20189;-62
2021/05/03 09:00:31;;;;;;;5.93;4.67;;;;;;;9.97;57.07;97335.94;5029853;28;20234;-62
2021/05/03 09:03:00;;;;;;;5.23;4.73;;;;;;;9.82;57.88;97334.59;5029198;28;20179;-62
2021/05/03 09:05:25;;;;;;;5.30;4.23;;;;;;;9.90;59.42;97335.19;5029789;28;20186;-62
2021/05/03 09:07:52;;;;;;;6.13;4.23;;;;;;;9.84;60.75;97343.88;5029199;28;20179;-62
2021/05/03 09:10:21;;;;;;;6.83;4.90;;;;;;;10.35;58.58;97336.00;5029817;28;20206;-63
2021/05/03 09:12:48;;;;;;;5.20;4.70;;;;;;;10.71;58.44;97335.31;5029741;28;20186;-62
2021/05/03 09:15:24;;;;;;;5.70;4.60;;;;;;;10.73;59.05;97337.72;5030064;28;20690;-62
2021/05/03 09:17:52;;;;;;;6.60;5.10;;;;;;;10.66;58.43;97337.78;5010831;28;20456;-62
2021/05/03 09:20:20;;;;;;;5.23;4.73;;;;;;;10.46;56.16;97329.28;5030069;28;20191;-62
2021/05/03 09:22:58;;;;;;;7.00;4.57;;;;;;;10.58;56.69;97324.94;5029890;28;20560;-63
2021/05/03 09:25:31;;;;;;;8.80;4.40;;;;;;;11.12;54.37;97321.66;5016312;28;20194;-63
2021/05/03 09:28:12;;;;;;;5.27;4.40;;;;;;;11.25;54.62;97318.91;5029065;28;20171;-63
2021/05/03 09:30:50;;;;;;;4.47;4.07;;;;;;;10.86;53.97;97321.09;5015399;28;20651;-63
2021/05/03 09:33:31;;;;;;;7.73;4.10;;;;;;;10.64;54.83;97323.28;5033699;28;20178;-63
2021/05/03 09:35:58;;;;;;;4.73;4.27;;;;;;;10.16;58.53;97318.56;5015118;28;20588;-63
2021/05/03 09:38:39;;;;;;;9.53;4.77;;;;;;;9.80;60.16;97326.19;5033312;28;20626;-63
2021/05/03 09:41:16;;;;;;;5.83;4.60;;;;;;;10.07;60.55;97317.19;5032363;28;20179;-63
2021/05/03 09:43:52;;;;;;;5.37;4.87;;;;;;;10.10;59.90;97315.94;5032967;28;20584;-62
2021/05/03 09:46:37;;;;;;;4.37;3.97;;;;;;;9.95;56.42;97321.47;5033684;28;20278;-62
2021/05/03 09:49:19;;;;;;;5.40;4.10;;;;;;;9.73;59.40;97312.31;5032177;28;20673;-63
2021/05/03 09:51:52;;;;;;;5.03;4.27;;;;;;;9.97;59.47;97314.22;5032245;28;20202;-63
2021/05/03 09:54:39;;;;;;;6.47;4.40;;;;;;;10.30;57.68;97319.28;5029842;28;20171;-63
2021/05/03 09:57:07;;;;;;;5.00;4.50;;;;;;;10.73;58.19;97319.38;5023878;28;20167;-62
2021/05/03 09:59:39;;;;;;;5.77;4.90;;;;;;;10.83;61.19;97322.31;5032484;28;20313;-63
2021/05/03 10:02:24;;;;;;;5.20;4.33;;;;;;;11.14;62.85;97324.06;5031526;28;20199;-63
2021/05/03 10:05:17;;;;;;;4.63;3.60;;;;;;;11.66;58.81;97315.63;5031751;28;20202;-63
2021/05/03 10:07:51;;;;;;;4.87;4.23;;;;;;;12.20;55.48;97315.81;5015291;28;20187;-63
2021/05/03 10:10:22;;;;;;;5.07;3.90;;;;;;;12.83;54.53;97302.88;5032768;28;20526;-63
2021/05/03 10:12:48;;;;;;;4.50;4.10;;;;;;;13.37;51.64;97308.88;5032081;28;20634;-63
2021/05/03 10:15:16;;;;;;;5.17;3.80;;;;;;;13.56;50.20;97297.13;5033170;28;20266;-63
2021/05/03 10:17:43;;;;;;;5.13;3.93;;;;;;;13.80;49.56;97303.97;5033094;28;20179;-63
2021/05/03 10:20:11;;;;;;;5.00;4.30;;;;;;;13.91;49.00;97302.31;5014974;28;20221;-63
2021/05/03 10:22:36;;;;;;;3.73;3.23;;;;;;;14.08;47.67;97303.16;5033003;28;20213;-63
2021/05/03 10:25:13;;;;;;;4.00;3.60;;;;;;;13.92;45.58;97299.47;5013880;28;20289;-63
2021/05/03 10:27:41;;;;;;;3.83;3.30;;;;;;;14.08;45.11;97301.34;5033611;28;20187;-63
2021/05/03 10:30:24;;;;;;;4.17;3.43;;;;;;;13.64;46.11;97302.88;5031986;28;20512;-63
2021/05/03 10:33:00;;;;;;;3.70;3.40;;;;;;;13.18;46.66;97295.03;5026420;28;20189;-63
2021/05/03 10:35:27;;;;;;;5.43;3.30;;;;;;;13.22;47.37;97291.69;5033004;28;20202;-63
2021/05/03 10:37:54;;;;;;;4.73;3.43;;;;;;;13.52;47.46;97288.13;5031907;28;20269;-63
2021/05/03 10:40:19;;;;;;;4.00;2.97;;;;;;;13.75;48.63;97290.69;5032189;28;20191;-63
2021/05/03 10:43:07;;;;;;;2.83;2.63;;;;;;;13.82;44.97;97280.78;5029700;28;20298;-63
2021/05/03 10:51:10;;;;;;;3.53;3.10;;;;;;;14.21;41.95;97265.97;5022819;28;20177;-62
2021/05/03 10:53:40;;;;;;;2.90;2.70;;;;;;;13.73;40.58;97256.66;5031794;28;20175;-63
2021/05/03 10:56:10;;;;;;;5.23;3.03;;;;;;;13.56;43.03;97255.81;5030530;28;20217;-63
2021/05/03 10:58:54;;;;;;;4.77;2.77;;;;;;;13.66;42.93;97256.00;5031508;28;20171;-62
2021/05/03 11:01:20;;;;;;;3.07;2.77;;;;;;;13.42;41.37;97256.31;5023361;28;20235;-63
2021/05/03 11:03:54;;;;;;;2.73;2.53;;;;;;;13.21;40.78;97247.97;5025397;28;20203;-63
2021/05/03 11:06:43;;;;;;;2.60;2.40;;;;;;;13.10;43.71;97248.75;5015926;28;20240;-63
2021/05/03 11:09:34;;;;;;;2.63;2.30;;;;;;;13.24;41.07;97244.91;5015470;28;20662;-63
2021/05/03 11:12:05;;;;;;;1.80;1.70;;;;;;;13.39;40.30;97235.69;5030914;28;20225;-63
2021/05/03 11:14:34;;;;;;;2.60;2.40;;;;;;;13.47;38.36;97240.59;5031950;28;20681;-63
2021/05/03 11:17:16;;;;;;;1.87;1.77;;;;;;;13.49;38.53;97239.31;5031284;28;20643;-63
2021/05/03 11:22:15;;;;;;;2.00;1.90;;;;;;;14.20;38.25;97238.00;5031217;28;20252;-62
2021/05/03 11:24:46;;;;;;;2.17;2.07;;;;;;;13.87;36.11;97240.59;5031888;28;20252;-61
2021/05/03 11:27:17;;;;;;;2.40;1.97;;;;;;;14.26;36.84;97246.81;5031497;28;20186;-61
2021/05/03 11:32:09;;;;;;;2.53;2.33;;;;;;;13.97;37.94;97235.50;5030963;28;20650;-61
2021/05/03 11:34:46;;;;;;;2.80;2.50;;;;;;;13.84;39.28;97233.94;5031825;28;20221;-61
2021/05/03 11:37:23;;;;;;;2.63;2.43;;;;;;;13.27;36.96;97227.81;5029982;28;20209;-63
2021/05/03 11:40:25;;;;;;;2.30;2.10;;;;;;;13.40;38.67;97229.41;5031470;28;20182;-62
2021/05/03 11:45:24;;;;;;;2.10;1.90;;;;;;;13.98;36.30;97222.09;5031453;28;20647;-62
2021/05/03 11:47:53;;;;;;;1.90;1.70;;;;;;;13.91;35.69;97218.00;5031242;28;20178;-61
2021/05/03 11:50:20;;;;;;;2.30;2.20;;;;;;;14.45;36.20;97214.72;5031777;28;20214;-61
2021/05/03 11:52:45;;;;;;;2.67;1.80;;;;;;;14.33;36.10;97207.88;5030723;28;20286;-61
2021/05/03 11:55:13;;;;;;;2.30;2.10;;;;;;;14.33;35.30;97203.41;5030988;28;20604;-62
2021/05/03 11:57:43;;;;;;;1.80;1.70;;;;;;;14.40;34.28;97204.09;5030819;28;20191;-61
2021/05/03 12:00:11;;;;;;;2.03;1.90;;;;;;;14.22;34.57;97195.56;5030251;28;20262;-61
2021/05/03 12:02:37;;;;;;;2.00;1.90;;;;;;;14.38;34.83;97202.72;5024755;28;20179;-61
2021/05/03 12:05:13;;;;;;;1.97;1.87;;;;;;;14.37;34.49;97191.41;5024069;28;20732;-61
2021/05/03 12:07:39;;;;;;;2.27;1.90;;;;;;;14.24;35.59;97191.66;5031450;28;20178;-61
2021/05/03 12:10:11;;;;;;;1.77;1.70;;;;;;;14.61;34.59;97192.00;5012015;28;20282;-60
2021/05/03 12:12:42;;;;;;;1.80;1.70;;;;;;;14.59;34.48;97183.53;4998203;28;20178;-61
2021/05/03 12:15:15;;;;;;;6.63;1.80;;;;;;;14.59;35.20;97183.53;5030171;28;20222;-61